createdAt,value
2022-12-01T00:00:01.210Z,7.15
2022-12-01T00:01:03.836Z,7.16
2022-12-01T00:02:06.889Z,7.2
2022-12-01T00:03:10.071Z,7.21
2022-12-01T00:04:12.903Z,7.22
2022-12-01T00:05:15.508Z,7.19
2022-12-01T00:06:18.211Z,7.17
2022-12-01T00:07:20.973Z,7.16
2022-12-01T00:08:23.705Z,7.18
2022-12-01T00:09:26.393Z,7.2
2022-12-01T00:10:29.037Z,7.2
2022-12-01T00:11:31.688Z,7.17
2022-12-01T00:12:34.417Z,7.14
2022-12-01T00:13:37.140Z,7.14
2022-12-01T00:14:39.816Z,7.09
2022-12-01T00:15:42.419Z,7.11
2022-12-01T00:16:45.387Z,7.13
2022-12-01T00:17:48.132Z,7.17
2022-12-01T00:18:50.838Z,7.18
2022-12-01T00:19:53.462Z,7.19
2022-12-01T00:20:56.201Z,7.2
2022-12-01T00:21:58.833Z,7.2
2022-12-01T00:23:01.469Z,7.22
2022-12-01T00:24:04.113Z,7.23
2022-12-01T00:25:07.724Z,7.2
2022-12-01T00:26:10.514Z,7.18
2022-12-01T00:27:13.141Z,7.21
2022-12-01T00:28:15.900Z,7.23
2022-12-01T00:29:18.602Z,7.21
2022-12-01T00:30:21.245Z,7.17
2022-12-01T00:31:24.211Z,7.19
2022-12-01T00:32:26.891Z,7.15
2022-12-01T00:33:29.580Z,7.09
2022-12-01T00:34:32.247Z,7.08
2022-12-01T00:35:34.906Z,6.99
2022-12-01T00:36:37.503Z,7.03
2022-12-01T00:37:40.152Z,7.09
2022-12-01T00:38:42.785Z,7.13
2022-12-01T00:39:45.853Z,7.02
2022-12-01T00:40:48.857Z,7.01
2022-12-01T00:41:51.547Z,6.93
2022-12-01T00:42:54.141Z,6.86
2022-12-01T00:43:56.814Z,6.79
2022-12-01T00:44:59.526Z,6.79
2022-12-01T00:46:02.505Z,6.79
2022-12-01T00:47:05.275Z,6.76
2022-12-01T00:48:07.884Z,6.78
2022-12-01T00:49:10.779Z,6.86
2022-12-01T00:50:13.444Z,6.82
2022-12-01T00:51:16.079Z,6.79
2022-12-01T00:52:18.713Z,6.76
2022-12-01T00:53:21.347Z,6.69
2022-12-01T00:54:23.983Z,6.7
2022-12-01T00:55:26.686Z,6.66
2022-12-01T00:56:29.338Z,6.71
2022-12-01T00:57:32.017Z,6.77
2022-12-01T00:58:34.637Z,6.82
2022-12-01T00:59:37.318Z,6.79
2022-12-01T01:00:39.982Z,6.76
2022-12-01T01:01:42.985Z,6.75
2022-12-01T01:02:45.885Z,6.78
2022-12-01T01:03:48.613Z,6.8
2022-12-01T01:04:51.259Z,6.8
2022-12-01T01:05:53.964Z,6.83
2022-12-01T01:06:56.637Z,6.83
2022-12-01T01:07:59.448Z,6.89
2022-12-01T01:09:02.161Z,6.92
2022-12-01T01:10:04.771Z,6.94
2022-12-01T01:11:07.369Z,6.96
2022-12-01T01:12:10.023Z,6.96
2022-12-01T01:13:12.637Z,6.97
2022-12-01T01:14:15.283Z,6.96
2022-12-01T01:15:17.878Z,6.95
2022-12-01T01:16:20.782Z,6.93
2022-12-01T01:17:23.455Z,6.9
2022-12-01T01:18:26.300Z,6.89
2022-12-01T01:19:28.932Z,6.88
2022-12-01T01:20:31.526Z,6.82
2022-12-01T01:21:34.239Z,6.77
2022-12-01T01:22:36.846Z,6.75
2022-12-01T01:23:39.461Z,6.78
2022-12-01T01:24:42.099Z,6.8
2022-12-01T01:25:44.732Z,6.84
2022-12-01T01:26:47.415Z,6.76
2022-12-01T01:27:50.018Z,6.73
2022-12-01T01:28:52.653Z,6.71
2022-12-01T01:29:55.391Z,6.72
2022-12-01T01:30:58.151Z,6.74
2022-12-01T01:32:00.930Z,6.75
2022-12-01T01:33:03.538Z,6.61
2022-12-01T01:34:06.158Z,6.59
2022-12-01T01:35:08.809Z,6.59
2022-12-01T01:36:12.937Z,6.55
2022-12-01T01:37:15.504Z,6.55
2022-12-01T01:38:18.353Z,6.5
2022-12-01T01:39:20.943Z,6.48
2022-12-01T01:40:23.577Z,6.48
2022-12-01T01:41:26.208Z,6.51
2022-12-01T01:42:28.821Z,6.53
2022-12-01T01:43:31.443Z,6.52
2022-12-01T01:44:35.780Z,6.48
2022-12-01T01:45:38.408Z,6.49
2022-12-01T01:46:41.325Z,6.43
2022-12-01T01:47:44.549Z,6.41
2022-12-01T01:48:47.177Z,6.35
2022-12-01T01:49:50.865Z,6.34
2022-12-01T01:50:55.245Z,6.26
2022-12-01T01:51:57.756Z,6.19
2022-12-01T01:53:00.344Z,6.19
2022-12-01T01:54:02.998Z,6.22
2022-12-01T01:55:05.672Z,6.22
2022-12-01T01:56:08.318Z,6.26
2022-12-01T01:57:10.902Z,6.23
2022-12-01T01:58:13.536Z,6.22
2022-12-01T01:59:16.176Z,6.17
2022-12-01T02:00:18.831Z,6.17
2022-12-01T02:01:21.957Z,6.11
2022-12-01T02:02:24.840Z,6.13
2022-12-01T02:03:27.583Z,6.09
2022-12-01T02:04:30.197Z,6.1
2022-12-01T02:05:33.844Z,6.1
2022-12-01T02:06:36.455Z,6
2022-12-01T02:07:39.786Z,5.99
2022-12-01T02:08:43.068Z,6.03
2022-12-01T02:09:46.424Z,6.08
2022-12-01T02:10:49.422Z,6.1
2022-12-01T02:11:52.011Z,6.11
2022-12-01T02:12:54.627Z,6.11
2022-12-01T02:13:57.200Z,6.08
2022-12-01T02:14:59.779Z,6.05
2022-12-01T02:16:02.378Z,6.02
2022-12-01T02:17:05.184Z,6
2022-12-01T02:18:07.921Z,6
2022-12-01T02:19:10.860Z,5.97
2022-12-01T02:20:13.674Z,5.99
2022-12-01T02:21:16.277Z,6.05
2022-12-01T02:22:19.110Z,6.08
2022-12-01T02:23:21.742Z,6.11
2022-12-01T02:24:24.421Z,6.14
2022-12-01T02:25:27.036Z,6.16
2022-12-01T02:26:29.653Z,6.21
2022-12-01T02:27:32.289Z,6.21
2022-12-01T02:28:34.927Z,6.12
2022-12-01T02:29:37.538Z,6.09
2022-12-01T02:30:40.416Z,6.1
2022-12-01T02:31:43.456Z,6.13
2022-12-01T02:32:46.055Z,6.08
2022-12-01T02:33:48.667Z,6.07
2022-12-01T02:34:51.361Z,6.1
2022-12-01T02:35:54.166Z,6.1
2022-12-01T02:36:56.826Z,6.1
2022-12-01T02:37:59.508Z,6.13
2022-12-01T02:39:02.112Z,6.15
2022-12-01T02:40:04.792Z,6.16
2022-12-01T02:41:07.450Z,6.17
2022-12-01T02:42:13.601Z,6.2
2022-12-01T02:43:16.037Z,6.24
2022-12-01T02:44:18.651Z,6.23
2022-12-01T02:45:21.273Z,6.24
2022-12-01T02:46:24.296Z,6.22
2022-12-01T02:47:27.031Z,6.11
2022-12-01T02:48:29.701Z,6.11
2022-12-01T02:49:32.662Z,6.13
2022-12-01T02:50:35.235Z,6.16
2022-12-01T02:51:38.133Z,6.22
2022-12-01T02:52:40.776Z,6.2
2022-12-01T02:53:43.465Z,6.21
2022-12-01T02:54:46.101Z,6.21
2022-12-01T02:55:50.218Z,6.25
2022-12-01T02:56:52.696Z,6.29
2022-12-01T02:57:55.305Z,6.28
2022-12-01T02:58:57.937Z,6.28
2022-12-01T03:00:00.572Z,6.28
2022-12-01T03:01:03.337Z,6.23
2022-12-01T03:02:06.597Z,6.23
2022-12-01T03:03:09.342Z,6.28
2022-12-01T03:04:11.955Z,6.24
2022-12-01T03:05:14.573Z,6.18
2022-12-01T03:06:17.221Z,6.16
2022-12-01T03:07:20.110Z,6.1
2022-12-01T03:08:22.779Z,6.09
2022-12-01T03:09:25.398Z,6.08
2022-12-01T03:10:27.964Z,6.06
2022-12-01T03:11:30.613Z,6.08
2022-12-01T03:12:33.288Z,6.05
2022-12-01T03:13:35.910Z,6
2022-12-01T03:14:38.536Z,6.02
2022-12-01T03:15:41.341Z,5.98
2022-12-01T03:16:44.236Z,5.91
2022-12-01T03:17:46.830Z,5.8
2022-12-01T03:18:49.489Z,5.81
2022-12-01T03:19:52.140Z,5.81
2022-12-01T03:20:55.048Z,5.87
2022-12-01T03:21:57.674Z,5.86
2022-12-01T03:23:00.280Z,5.82
2022-12-01T03:24:02.927Z,5.77
2022-12-01T03:25:05.509Z,5.75
2022-12-01T03:26:08.124Z,5.73
2022-12-01T03:27:10.790Z,5.69
2022-12-01T03:28:23.016Z,5.75
2022-12-01T03:29:26.324Z,5.8
2022-12-01T03:30:28.807Z,5.8
2022-12-01T03:31:31.892Z,5.81
2022-12-01T03:32:34.663Z,5.78
2022-12-01T03:33:37.334Z,5.72
2022-12-01T03:34:39.939Z,5.76
2022-12-01T03:35:42.538Z,5.81
2022-12-01T03:36:45.436Z,5.83
2022-12-01T03:37:48.067Z,5.82
2022-12-01T03:38:50.664Z,5.84
2022-12-01T03:40:01.442Z,5.8
2022-12-01T03:41:04.255Z,5.8
2022-12-01T03:42:06.909Z,5.85
2022-12-01T03:43:09.546Z,5.89
2022-12-01T03:44:12.170Z,5.91
2022-12-01T03:45:14.817Z,5.93
2022-12-01T03:46:17.570Z,5.94
2022-12-01T03:47:20.322Z,5.96
2022-12-01T03:48:23.061Z,5.97
2022-12-01T03:49:25.665Z,6
2022-12-01T03:50:28.342Z,6.03
2022-12-01T03:51:32.480Z,6.07
2022-12-01T03:52:34.980Z,6.05
2022-12-01T03:53:37.607Z,6.07
2022-12-01T03:54:40.273Z,6.07
2022-12-01T03:55:42.891Z,6.07
2022-12-01T03:56:45.539Z,6.01
2022-12-01T03:57:48.159Z,5.93
2022-12-01T03:58:50.797Z,5.92
2022-12-01T03:59:53.425Z,5.94
2022-12-01T04:00:56.102Z,5.87
2022-12-01T04:01:58.992Z,5.84
2022-12-01T04:03:02.454Z,5.88
2022-12-01T04:04:05.225Z,5.93
2022-12-01T04:05:07.811Z,5.9
2022-12-01T04:06:10.491Z,5.9
2022-12-01T04:07:13.086Z,5.91
2022-12-01T04:08:15.793Z,5.95
2022-12-01T04:09:18.434Z,5.99
2022-12-01T04:10:21.118Z,5.98
2022-12-01T04:11:33.087Z,6.01
2022-12-01T04:12:35.265Z,6.03
2022-12-01T04:13:37.896Z,6.04
2022-12-01T04:14:40.597Z,5.94
2022-12-01T04:15:43.355Z,5.94
2022-12-01T04:16:46.011Z,5.96
2022-12-01T04:17:48.654Z,5.99
2022-12-01T04:18:51.330Z,5.99
2022-12-01T04:19:53.972Z,6.01
2022-12-01T04:20:56.609Z,5.98
2022-12-01T04:21:59.262Z,6
2022-12-01T04:23:01.941Z,6.02
2022-12-01T04:24:04.587Z,6.02
2022-12-01T04:25:07.845Z,6.02
2022-12-01T04:26:16.167Z,5.99
2022-12-01T04:27:18.480Z,5.96
2022-12-01T04:28:21.066Z,5.96
2022-12-01T04:29:23.721Z,5.99
2022-12-01T04:30:26.359Z,5.95
2022-12-01T04:31:29.407Z,5.91
2022-12-01T04:32:32.110Z,5.9
2022-12-01T04:33:34.725Z,5.9
2022-12-01T04:34:37.338Z,5.91
2022-12-01T04:35:39.925Z,5.93
2022-12-01T04:36:42.533Z,5.91
2022-12-01T04:37:45.203Z,5.87
2022-12-01T04:38:47.882Z,5.86
2022-12-01T04:39:51.506Z,5.83
2022-12-01T04:40:54.639Z,5.83
2022-12-01T04:41:57.225Z,5.88
2022-12-01T04:42:59.795Z,5.89
2022-12-01T04:44:02.417Z,5.93
2022-12-01T04:45:05.080Z,5.94
2022-12-01T04:46:07.865Z,5.95
2022-12-01T04:47:10.588Z,5.95
2022-12-01T04:48:13.192Z,5.95
2022-12-01T04:49:15.863Z,5.91
2022-12-01T04:50:18.551Z,5.91
2022-12-01T04:51:21.164Z,5.9
2022-12-01T04:52:23.779Z,5.85
2022-12-01T04:53:26.360Z,5.85
2022-12-01T04:54:29.020Z,5.86
2022-12-01T04:55:31.683Z,5.87
2022-12-01T04:56:34.388Z,5.84
2022-12-01T04:57:36.993Z,5.81
2022-12-01T04:58:39.654Z,5.83
2022-12-01T04:59:42.237Z,5.85
2022-12-01T05:00:45.155Z,5.86
2022-12-01T05:01:48.652Z,5.83
2022-12-01T05:02:51.321Z,5.78
2022-12-01T05:04:04.933Z,5.77
2022-12-01T05:05:07.121Z,5.79
2022-12-01T05:06:09.705Z,5.83
2022-12-01T05:07:12.550Z,5.85
2022-12-01T05:08:15.179Z,5.88
2022-12-01T05:09:18.297Z,5.94
2022-12-01T05:10:20.923Z,5.97
2022-12-01T05:11:23.583Z,6
2022-12-01T05:12:26.273Z,5.98
2022-12-01T05:13:38.901Z,6.02
2022-12-01T05:14:41.158Z,6.04
2022-12-01T05:15:43.734Z,6.02
2022-12-01T05:16:46.565Z,5.95
2022-12-01T05:17:49.204Z,5.93
2022-12-01T05:18:52.000Z,5.91
2022-12-01T05:19:54.679Z,5.87
2022-12-01T05:20:57.347Z,5.84
2022-12-01T05:21:59.984Z,5.85
2022-12-01T05:23:12.183Z,5.87
2022-12-01T05:24:18.779Z,5.89
2022-12-01T05:25:21.389Z,5.84
2022-12-01T05:26:24.206Z,5.84
2022-12-01T05:27:26.828Z,5.84
2022-12-01T05:28:29.489Z,5.84
2022-12-01T05:29:32.114Z,5.88
2022-12-01T05:30:35.208Z,5.89
2022-12-01T05:31:38.267Z,5.9
2022-12-01T05:32:41.334Z,5.91
2022-12-01T05:33:43.986Z,5.96
2022-12-01T05:34:46.598Z,5.99
2022-12-01T05:35:49.256Z,6.01
2022-12-01T05:36:51.903Z,6.02
2022-12-01T05:37:54.728Z,6.01
2022-12-01T05:38:57.565Z,5.97
2022-12-01T05:40:00.272Z,5.97
2022-12-01T05:41:02.879Z,6
2022-12-01T05:42:05.509Z,6
2022-12-01T05:43:09.207Z,6.01
2022-12-01T05:44:13.136Z,5.98
2022-12-01T05:45:27.539Z,5.99
2022-12-01T05:46:30.189Z,6
2022-12-01T05:47:34.163Z,6.02
2022-12-01T05:48:41.809Z,6.03
2022-12-01T05:49:44.522Z,6.04
2022-12-01T05:50:52.612Z,6.07
2022-12-01T05:51:54.972Z,6.08
2022-12-01T05:53:01.802Z,6.08
2022-12-01T05:54:05.606Z,6.09
2022-12-01T05:55:13.510Z,6.12
2022-12-01T05:56:20.293Z,6.12
2022-12-01T05:57:25.672Z,6.12
2022-12-01T05:58:28.648Z,6.08
2022-12-01T05:59:35.807Z,6.09
2022-12-01T06:00:46.557Z,6.02
2022-12-01T06:01:49.016Z,5.99
2022-12-01T06:02:52.166Z,5.95
2022-12-01T06:04:00.422Z,5.93
2022-12-01T06:05:08.416Z,5.93
2022-12-01T06:06:10.642Z,5.93
2022-12-01T06:07:18.718Z,5.94
2022-12-01T06:08:22.539Z,5.9
2022-12-01T06:09:33.539Z,5.87
2022-12-01T06:10:41.204Z,5.86
2022-12-01T06:11:52.597Z,5.85
2022-12-01T06:12:55.442Z,5.86
2022-12-01T06:14:03.485Z,5.92
2022-12-01T06:15:07.239Z,5.94
2022-12-01T06:16:11.130Z,5.94
2022-12-01T06:17:19.071Z,5.95
2022-12-01T06:18:21.331Z,5.97
2022-12-01T06:19:28.438Z,5.96
2022-12-01T06:20:36.239Z,5.94
2022-12-01T06:21:44.034Z,5.93
2022-12-01T06:22:50.757Z,5.94
2022-12-01T06:23:58.557Z,5.91
2022-12-01T06:25:10.263Z,5.88
2022-12-01T06:26:16.910Z,5.83
2022-12-01T06:27:24.590Z,5.86
2022-12-01T06:28:28.288Z,5.82
2022-12-01T06:29:47.280Z,5.79
2022-12-01T06:31:03.977Z,5.72
2022-12-01T06:32:07.668Z,5.69
2022-12-01T06:33:14.583Z,5.71
2022-12-01T06:34:22.372Z,5.77
2022-12-01T06:35:28.152Z,5.81
2022-12-01T06:36:30.528Z,5.76
2022-12-01T06:37:34.666Z,5.67
2022-12-01T06:38:38.546Z,5.63
2022-12-01T06:39:45.464Z,5.63
2022-12-01T06:40:49.287Z,5.67
2022-12-01T06:41:57.034Z,5.71
2022-12-01T06:43:03.910Z,5.76
2022-12-01T06:44:08.600Z,5.69
2022-12-01T06:45:16.324Z,5.7
2022-12-01T06:46:19.821Z,5.7
2022-12-01T06:47:27.838Z,5.72
2022-12-01T06:48:35.598Z,5.78
2022-12-01T06:49:38.397Z,5.78
2022-12-01T06:50:46.287Z,5.82
2022-12-01T06:51:54.986Z,5.82
2022-12-01T06:52:59.583Z,5.83
2022-12-01T06:54:07.435Z,5.84
2022-12-01T06:55:11.580Z,5.8
2022-12-01T06:56:14.568Z,5.73
2022-12-01T06:57:18.492Z,5.72
2022-12-01T06:58:27.670Z,5.77
2022-12-01T06:59:32.171Z,5.74
2022-12-01T07:00:52.549Z,5.77
2022-12-01T07:01:56.283Z,5.8
2022-12-01T07:03:03.499Z,5.82
2022-12-01T07:04:07.183Z,5.8
2022-12-01T07:05:15.016Z,5.81
2022-12-01T07:06:21.742Z,5.79
2022-12-01T07:07:24.176Z,5.81
2022-12-01T07:08:32.340Z,5.8
2022-12-01T07:09:35.077Z,5.77
2022-12-01T07:10:43.110Z,5.76
2022-12-01T07:11:46.908Z,5.79
2022-12-01T07:12:49.780Z,5.78
2022-12-01T07:13:57.806Z,5.74
2022-12-01T07:15:01.469Z,5.78
2022-12-01T07:16:08.606Z,5.82
2022-12-01T07:17:16.428Z,5.75
2022-12-01T07:18:20.234Z,5.73
2022-12-01T07:19:27.002Z,5.77
2022-12-01T07:20:34.789Z,5.77
2022-12-01T07:21:42.576Z,5.79
2022-12-01T07:22:45.493Z,5.79
2022-12-01T07:23:53.479Z,5.76
2022-12-01T07:25:01.261Z,5.72
2022-12-01T07:26:08.026Z,5.73
2022-12-01T07:27:15.765Z,5.77
2022-12-01T07:28:23.531Z,5.75
2022-12-01T07:29:30.310Z,5.75
2022-12-01T07:30:38.309Z,5.77
2022-12-01T07:31:46.215Z,5.71
2022-12-01T07:32:52.991Z,5.7
2022-12-01T07:34:00.813Z,5.71
2022-12-01T07:35:04.591Z,5.76
2022-12-01T07:36:11.535Z,5.74
2022-12-01T07:37:19.326Z,5.78
2022-12-01T07:38:27.148Z,5.7
2022-12-01T07:39:33.892Z,5.71
2022-12-01T07:40:41.662Z,5.74
2022-12-01T07:41:45.392Z,5.67
2022-12-01T07:42:52.364Z,5.66
2022-12-01T07:44:00.313Z,5.62
2022-12-01T07:45:08.158Z,5.58
2022-12-01T07:46:24.292Z,5.55
2022-12-01T07:47:28.187Z,5.6
2022-12-01T07:48:36.046Z,5.63
2022-12-01T07:49:42.796Z,5.63
2022-12-01T07:50:50.535Z,5.65
2022-12-01T07:51:58.241Z,5.67
2022-12-01T07:53:05.049Z,5.69
2022-12-01T07:54:12.847Z,5.67
2022-12-01T07:55:20.525Z,5.66
2022-12-01T07:56:27.519Z,5.62
2022-12-01T07:57:31.347Z,5.67
2022-12-01T07:58:39.410Z,5.7
2022-12-01T07:59:46.922Z,5.7
2022-12-01T08:00:55.251Z,5.75
2022-12-01T08:02:03.128Z,5.81
2022-12-01T08:03:06.224Z,5.78
2022-12-01T08:04:08.818Z,5.81
2022-12-01T08:05:16.866Z,5.82
2022-12-01T08:06:19.181Z,5.83
2022-12-01T08:07:30.391Z,5.82
2022-12-01T08:08:32.672Z,5.82
2022-12-01T08:09:35.732Z,5.83
2022-12-01T08:10:39.723Z,5.81
2022-12-01T09:59:14.829Z,6.09
2022-12-01T10:00:22.380Z,6.1
2022-12-01T10:01:30.149Z,6.13
2022-12-01T10:02:33.216Z,6.14
2022-12-01T10:03:42.182Z,6.15
2022-12-01T10:04:47.066Z,6.15
2022-12-01T10:06:26.480Z,6.15
2022-12-01T10:07:17.091Z,6.04
2022-12-01T10:08:27.401Z,6.01
2022-12-01T10:09:33.683Z,6.03
2022-12-01T10:10:39.000Z,6.08
2022-12-01T10:11:45.806Z,6.1
2022-12-01T10:12:53.589Z,6.07
2022-12-01T10:13:57.313Z,6.08
2022-12-01T10:15:04.333Z,6.12
2022-12-01T10:16:13.973Z,6.14
2022-12-01T10:17:16.262Z,6.18
2022-12-01T10:18:20.174Z,6.24
2022-12-01T10:19:29.122Z,6.18
2022-12-01T10:20:32.861Z,6.17
2022-12-01T10:21:41.788Z,6.13
2022-12-01T10:22:45.590Z,6.13
2022-12-01T10:23:49.447Z,6.16
2022-12-01T10:24:52.350Z,6.22
2022-12-01T10:25:56.337Z,6.26
2022-12-01T10:27:06.482Z,6.23
2022-12-01T10:28:13.229Z,6.26
2022-12-01T10:29:20.956Z,6.32
2022-12-01T10:30:24.856Z,6.35
2022-12-01T10:31:28.058Z,6.38
2022-12-01T10:32:38.410Z,6.42
2022-12-01T10:33:42.101Z,6.36
2022-12-01T10:34:45.035Z,6.34
2022-12-01T10:35:49.044Z,6.25
2022-12-01T10:36:56.906Z,6.24
2022-12-01T10:38:02.359Z,6.24
2022-12-01T10:39:10.303Z,6.26
2022-12-01T10:40:14.079Z,6.27
2022-12-01T10:41:21.021Z,6.29
2022-12-01T10:42:23.274Z,6.3
2022-12-01T10:43:33.951Z,6.33
2022-12-01T10:44:36.136Z,6.35
2022-12-01T10:45:40.525Z,6.34
2022-12-01T10:46:43.708Z,6.36
2022-12-01T10:47:46.801Z,6.39
2022-12-01T10:48:57.585Z,6.37
2022-12-01T10:50:05.295Z,6.39
2022-12-01T10:51:09.021Z,6.38
2022-12-01T10:52:16.946Z,6.39
2022-12-01T10:53:19.222Z,6.37
2022-12-01T10:54:29.105Z,6.37
2022-12-01T10:55:48.421Z,6.38
2022-12-01T10:56:51.785Z,6.44
2022-12-01T10:57:58.648Z,6.49
2022-12-01T10:59:08.378Z,6.55
2022-12-01T11:00:57.819Z,6.57
2022-12-01T11:01:38.422Z,6.55
2022-12-01T11:02:42.654Z,6.6
2022-12-01T11:03:45.328Z,6.61
2022-12-01T11:04:48.576Z,6.63
2022-12-01T11:05:51.417Z,6.65
2022-12-01T11:06:59.540Z,6.64
2022-12-01T11:08:02.709Z,6.47
2022-12-01T11:09:10.870Z,6.45
2022-12-01T11:10:14.615Z,6.47
2022-12-01T11:11:21.525Z,6.4
2022-12-01T11:12:29.290Z,6.37
2022-12-01T11:13:33.130Z,6.35
2022-12-01T11:14:40.013Z,6.36
2022-12-01T11:15:47.811Z,6.42
2022-12-01T11:16:52.004Z,6.4
2022-12-01T11:17:54.585Z,6.32
2022-12-01T11:18:59.041Z,6.35
2022-12-01T11:20:07.133Z,6.39
2022-12-01T11:21:22.054Z,6.35
2022-12-01T11:22:29.946Z,6.35
2022-12-01T11:23:32.149Z,6.37
2022-12-01T11:24:34.773Z,6.35
2022-12-01T11:25:42.799Z,6.38
2022-12-01T11:26:46.277Z,6.42
2022-12-01T11:27:48.845Z,6.41
2022-12-01T11:28:51.506Z,6.39
2022-12-01T11:29:59.548Z,6.31
2022-12-01T11:31:02.348Z,6.31
2022-12-01T11:32:10.794Z,6.26
2022-12-01T11:33:15.395Z,6.16
2022-12-01T11:34:22.273Z,6.11
2022-12-01T11:35:30.015Z,6.16
2022-12-01T11:36:32.278Z,6.14
2022-12-01T11:37:34.848Z,6.1
2022-12-01T11:38:42.979Z,6.04
2022-12-01T11:39:48.983Z,6.08
2022-12-01T11:40:52.516Z,6.13
2022-12-01T11:41:56.526Z,6.15
2022-12-01T11:43:12.479Z,6.2
2022-12-01T11:45:38.984Z,6.13
2022-12-01T11:47:01.598Z,6.16
2022-12-01T11:48:03.883Z,6.19
2022-12-01T11:49:11.813Z,6.25
2022-12-01T11:50:19.692Z,6.28
2022-12-01T11:51:31.460Z,6.29
2022-12-01T11:52:39.098Z,6.31
2022-12-01T11:53:42.813Z,6.3
2022-12-01T11:54:49.736Z,6.32
2022-12-01T11:55:57.511Z,6.35
2022-12-01T11:57:32.992Z,6.34
2022-12-01T11:58:23.847Z,6.38
2022-12-01T11:59:31.827Z,6.37
2022-12-01T12:00:35.629Z,6.31
2022-12-01T12:01:42.479Z,6.31
2022-12-01T12:02:50.466Z,6.2
2022-12-01T12:03:58.359Z,6.12
2022-12-01T12:05:05.189Z,6.09
2022-12-01T12:07:36.401Z,6.17
2022-12-01T12:08:44.617Z,6.18
2022-12-01T12:09:49.478Z,6.15
2022-12-01T12:10:56.848Z,6.16
2022-12-01T12:12:04.885Z,6.22
2022-12-01T12:13:08.664Z,6.28
2022-12-01T12:14:16.027Z,6.29
2022-12-01T12:15:20.025Z,6.28
2022-12-01T12:16:33.545Z,6.25
2022-12-01T12:17:36.789Z,6.23
2022-12-01T12:18:40.918Z,6.2
2022-12-01T12:20:07.496Z,6.2
2022-12-01T12:21:11.147Z,6.26
2022-12-01T12:22:19.032Z,6.2
2022-12-01T12:23:22.866Z,6.12
2022-12-01T12:24:29.749Z,6.14
2022-12-01T12:25:37.530Z,6.18
2022-12-01T12:26:41.263Z,6.26
2022-12-01T12:27:48.176Z,6.37
2022-12-01T12:28:50.522Z,6.44
2022-12-01T12:29:54.592Z,6.48
2022-12-01T12:31:01.869Z,6.52
2022-12-01T12:32:09.862Z,6.55
2022-12-01T12:33:13.616Z,6.59
2022-12-01T12:34:20.526Z,6.65
2022-12-01T12:35:28.390Z,6.63
2022-12-01T12:36:36.200Z,6.58
2022-12-01T12:37:39.044Z,6.53
2022-12-01T12:38:46.987Z,6.56
2022-12-01T12:39:51.995Z,6.59
2022-12-01T12:40:59.393Z,6.61
2022-12-01T12:42:03.137Z,6.65
2022-12-01T12:43:05.555Z,6.6
2022-12-01T12:44:12.674Z,6.57
2022-12-01T12:45:20.475Z,6.57
2022-12-01T12:46:24.393Z,6.56
2022-12-01T12:47:31.412Z,6.54
2022-12-01T12:49:11.979Z,6.48
2022-12-01T12:50:02.427Z,6.52
2022-12-01T12:51:10.439Z,6.45
2022-12-01T12:52:14.202Z,6.45
2022-12-01T12:53:21.148Z,6.46
2022-12-01T12:54:25.103Z,6.49
2022-12-01T12:55:33.168Z,6.49
2022-12-01T12:56:35.356Z,6.48
2022-12-01T12:57:43.527Z,6.45
2022-12-01T12:58:47.318Z,6.44
2022-12-01T12:59:54.239Z,6.41
2022-12-01T13:01:03.021Z,6.38
2022-12-01T13:02:06.805Z,6.41
2022-12-01T13:03:13.823Z,6.43
2022-12-01T13:04:21.637Z,6.47
2022-12-01T13:05:23.853Z,6.4
2022-12-01T13:06:31.081Z,6.36
2022-12-01T13:07:39.059Z,6.35
2022-12-01T13:08:44.394Z,6.37
2022-12-01T13:09:52.386Z,6.38
2022-12-01T13:11:00.362Z,6.29
2022-12-01T13:12:04.716Z,6.31
2022-12-01T13:13:11.637Z,6.36
2022-12-01T13:14:19.433Z,6.36
2022-12-01T13:15:23.171Z,6.36
2022-12-01T13:16:30.166Z,6.41
2022-12-01T13:17:37.848Z,6.44
2022-12-01T13:18:45.586Z,6.46
2022-12-01T13:19:50.031Z,6.43
2022-12-01T13:20:58.312Z,6.44
2022-12-01T13:22:06.463Z,6.48
2022-12-01T13:23:09.348Z,6.49
2022-12-01T13:24:23.799Z,6.46
2022-12-01T13:25:27.403Z,6.45
2022-12-01T13:26:34.300Z,6.44
2022-12-01T13:27:42.164Z,6.34
2022-12-01T13:28:44.377Z,6.28
2022-12-01T13:29:52.207Z,6.3
2022-12-01T13:31:00.868Z,6.33
2022-12-01T13:32:08.708Z,6.37
2022-12-01T13:33:11.374Z,6.41
2022-12-01T13:34:15.332Z,6.43
2022-12-01T13:35:23.252Z,6.45
2022-12-01T13:36:47.675Z,6.44
2022-12-01T13:37:51.457Z,6.42
2022-12-01T13:38:59.363Z,6.38
2022-12-01T13:40:06.102Z,6.38
2022-12-01T13:41:13.914Z,6.38
2022-12-01T13:42:16.079Z,6.32
2022-12-01T13:43:23.208Z,6.22
2022-12-01T13:44:31.187Z,6.23
2022-12-01T13:45:38.958Z,6.23
2022-12-01T13:46:42.000Z,6.22
2022-12-01T13:47:50.168Z,6.2
2022-12-01T13:48:53.365Z,6.19
2022-12-01T13:49:56.440Z,6.14
2022-12-01T13:51:04.510Z,6.16
2022-12-01T13:52:08.325Z,6.04
2022-12-01T13:53:15.346Z,5.97
2022-12-01T13:54:23.145Z,5.97
2022-12-01T13:55:25.961Z,5.98
2022-12-01T13:56:41.064Z,6.03
2022-12-01T13:57:44.833Z,6.06
2022-12-01T13:59:50.086Z,6.12
2022-12-01T14:00:58.705Z,6.16
2022-12-01T14:02:01.281Z,6.15
2022-12-01T14:03:08.666Z,6.07
2022-12-01T14:04:16.476Z,6.08
2022-12-01T14:05:21.193Z,6.12
2022-12-01T14:06:28.155Z,6.1
2022-12-01T14:07:36.167Z,6.06
2022-12-01T14:08:38.829Z,6.05
2022-12-01T14:09:41.413Z,6.04
2022-12-01T14:10:45.528Z,6.07
2022-12-01T14:11:58.047Z,6.08
2022-12-01T14:13:04.785Z,6.11
2022-12-01T14:14:08.587Z,6.14
2022-12-01T14:15:16.489Z,6.18
2022-12-01T14:16:19.506Z,6.18
2022-12-01T14:17:27.554Z,6.16
2022-12-01T14:18:31.326Z,6.16
2022-12-01T14:19:38.181Z,6.13
2022-12-01T14:20:46.014Z,6.04
2022-12-01T14:21:49.851Z,5.99
2022-12-01T14:22:53.780Z,6.03
2022-12-01T14:23:57.243Z,6.05
2022-12-01T14:25:01.313Z,6.02
2022-12-01T14:26:08.278Z,6.03
2022-12-01T14:27:19.114Z,6.06
2022-12-01T14:28:26.799Z,6.08
2022-12-01T14:29:33.579Z,6.09
2022-12-01T14:30:41.340Z,6.06
2022-12-01T14:31:45.263Z,6.04
2022-12-01T14:32:49.486Z,6.07
2022-12-01T14:33:57.713Z,6.09
2022-12-01T14:34:59.982Z,6.12
2022-12-01T14:36:02.531Z,6.08
2022-12-01T14:37:06.681Z,6.03
2022-12-01T14:38:09.051Z,6.05
2022-12-01T14:39:13.290Z,6.06
2022-12-01T14:40:22.406Z,6.1
2022-12-01T14:41:24.639Z,6.12
2022-12-01T14:42:27.207Z,6.13
2022-12-01T14:43:31.329Z,6.13
2022-12-01T14:44:39.525Z,6.12
2022-12-01T14:45:42.396Z,6.11
2022-12-01T14:46:50.509Z,6.12
2022-12-01T14:47:52.815Z,6.11
2022-12-01T14:48:55.373Z,6.13
2022-12-01T14:50:03.388Z,6.15
2022-12-01T14:51:07.224Z,6.11
2022-12-01T14:52:14.170Z,6.13
2022-12-01T14:53:21.966Z,6.09
2022-12-01T14:54:25.749Z,6.1
2022-12-01T14:55:32.949Z,6.11
2022-12-01T14:56:40.592Z,6.12
2022-12-01T14:57:44.403Z,6.06
2022-12-01T14:58:49.314Z,6.03
2022-12-01T14:59:57.194Z,6.08
2022-12-01T15:01:01.149Z,6.13
2022-12-01T15:02:08.398Z,6.16
2022-12-01T15:03:16.260Z,6.13
2022-12-01T15:04:20.138Z,6.08
2022-12-01T15:05:27.031Z,6.05
2022-12-01T15:06:38.829Z,5.99
2022-12-01T15:07:46.615Z,5.94
2022-12-01T15:09:25.515Z,5.93
2022-12-01T15:10:16.847Z,5.95
2022-12-01T15:11:20.805Z,5.97
2022-12-01T15:12:23.655Z,5.99
2022-12-01T15:13:31.545Z,6
2022-12-01T15:14:35.332Z,6
2022-12-01T15:15:42.247Z,6.04
2022-12-01T15:17:22.136Z,6.02
2022-12-01T15:18:29.469Z,5.98
2022-12-01T15:19:37.173Z,5.99
2022-12-01T15:20:48.163Z,5.94
2022-12-01T15:21:50.869Z,5.93
2022-12-01T15:22:57.720Z,5.93
2022-12-01T15:24:01.774Z,5.92
2022-12-01T15:25:08.743Z,5.9
2022-12-01T15:26:16.658Z,5.9
2022-12-01T15:27:20.473Z,5.89
2022-12-01T15:28:23.415Z,5.88
2022-12-01T15:29:25.928Z,5.9
2022-12-01T15:30:30.031Z,5.93
2022-12-01T15:31:36.068Z,5.97
2022-12-01T15:32:44.199Z,6.03
2022-12-01T15:33:52.022Z,6.09
2022-12-01T15:34:58.777Z,6.15
2022-12-01T15:36:06.526Z,6.19
2022-12-01T15:37:14.276Z,6.21
2022-12-01T15:38:17.016Z,6.25
2022-12-01T15:39:20.995Z,6.24
2022-12-01T15:41:50.739Z,6.24
2022-12-01T15:42:58.872Z,6.25
2022-12-01T15:44:01.155Z,6.23
2022-12-01T15:45:08.193Z,6.23
2022-12-01T15:46:24.150Z,6.23
2022-12-01T15:47:28.412Z,6.22
2022-12-01T15:48:35.232Z,6.25
2022-12-01T15:49:42.987Z,6.27
2022-12-01T15:50:50.778Z,6.28
2022-12-01T15:51:52.944Z,6.26
2022-12-01T15:53:00.990Z,6.27
2022-12-01T15:54:08.789Z,6.3
2022-12-01T15:55:15.569Z,6.28
2022-12-01T15:56:23.254Z,6.26
2022-12-01T15:57:31.053Z,6.22
2022-12-01T15:58:33.833Z,6.18
2022-12-01T15:59:41.782Z,6.08
2022-12-01T16:00:44.211Z,6.07
2022-12-01T16:01:51.381Z,6.06
2022-12-01T16:02:59.424Z,6.07
2022-12-01T16:04:01.795Z,6.07
2022-12-01T16:05:08.847Z,6.04
2022-12-01T16:06:16.577Z,6.04
2022-12-01T16:07:20.605Z,6.07
2022-12-01T16:08:23.370Z,6.07
2022-12-01T16:09:31.505Z,6.06
2022-12-01T16:10:35.344Z,6.03
2022-12-01T16:11:42.282Z,5.99
2022-12-01T16:12:50.169Z,6.02
2022-12-01T16:13:57.985Z,6.06
2022-12-01T16:15:04.777Z,6.07
2022-12-01T16:16:06.997Z,6.07
2022-12-01T16:17:15.123Z,6.06
2022-12-01T16:18:30.872Z,6.03
2022-12-01T16:19:34.324Z,6.02
2022-12-01T16:20:42.288Z,6.01
2022-12-01T16:21:44.978Z,6
2022-12-01T16:22:52.906Z,5.98